sensor_id;sensor_type;location;lat;lon;timestamp;temperature;humidity
16283;DHT22;8249;48.708;9.030;2023-01-15T00:01:17;9.10;99.90
16283;DHT22;8249;48.708;9.030;2023-01-15T00:03:46;9.20;99.90
16283;DHT22;8249;48.708;9.030;2023-01-15T00:06:13;9.10;99.90
16283;DHT22;8249;48.708;9.030;2023-01-15T00:08:40;9.20;99.90
16283;DHT22;8249;48.708;9.030;2023-01-15T00:11:07;9.20;99.90
16283;DHT22;8249;48.708;9.030;2023-01-15T00:13:34;9.20;99.90
16283;DHT22;8249;48.708;9.030;2023-01-15T00:16:02;9.30;99.90
16283;DHT22;8249;48.708;9.030;2023-01-15T00:18:29;9.30;99.90
16283;DHT22;8249;48.708;9.030;2023-01-15T00:21:00;9.30;99.90
16283;DHT22;8249;48.708;9.030;2023-01-15T00:23:27;9.30;99.90
16283;DHT22;8249;48.708;9.030;2023-01-15T00:26:12;9.10;99.90
16283;DHT22;8249;48.708;9.030;2023-01-15T00:28:58;9.30;99.90
16283;DHT22;8249;48.708;9.030;2023-01-15T00:31:24;9.30;99.90
16283;DHT22;8249;48.708;9.030;2023-01-15T00:33:52;9.30;99.90
16283;DHT22;8249;48.708;9.030;2023-01-15T00:36:20;9.30;99.90
16283;DHT22;8249;48.708;9.030;2023-01-15T00:38:47;9.30;99.90
16283;DHT22;8249;48.708;9.030;2023-01-15T00:41:14;9.40;99.90
16283;DHT22;8249;48.708;9.030;2023-01-15T00:43:41;9.40;99.90
16283;DHT22;8249;48.708;9.030;2023-01-15T00:46:08;9.40;99.90
16283;DHT22;8249;48.708;9.030;2023-01-15T00:48:35;9.40;99.90
16283;DHT22;8249;48.708;9.030;2023-01-15T00:51:03;9.40;99.90
16283;DHT22;8249;48.708;9.030;2023-01-15T00:53:31;9.40;99.90
16283;DHT22;8249;48.708;9.030;2023-01-15T00:55:59;9.50;99.90
16283;DHT22;8249;48.708;9.030;2023-01-15T00:58:27;9.40;99.90
16283;DHT22;8249;48.708;9.030;2023-01-15T01:00:54;9.50;99.90
16283;DHT22;8249;48.708;9.030;2023-01-15T01:03:22;9.50;99.90
16283;DHT22;8249;48.708;9.030;2023-01-15T01:05:49;9.60;99.90
16283;DHT22;8249;48.708;9.030;2023-01-15T01:08:16;9.60;99.90
16283;DHT22;8249;48.708;9.030;2023-01-15T01:10:45;9.60;99.90
16283;DHT22;8249;48.708;9.030;2023-01-15T01:13:11;9.60;99.90
16283;DHT22;8249;48.708;9.030;2023-01-15T01:15:38;9.60;99.90
16283;DHT22;8249;48.708;9.030;2023-01-15T01:18:05;9.60;99.90
16283;DHT22;8249;48.708;9.030;2023-01-15T01:20:33;9.70;99.90
16283;DHT22;8249;48.708;9.030;2023-01-15T01:23:00;9.70;99.90
16283;DHT22;8249;48.708;9.030;2023-01-15T01:25:27;9.70;99.90
16283;DHT22;8249;48.708;9.030;2023-01-15T01:27:55;9.70;99.90
16283;DHT22;8249;48.708;9.030;2023-01-15T01:30:22;9.70;99.90
16283;DHT22;8249;48.708;9.030;2023-01-15T01:32:49;9.70;99.90
16283;DHT22;8249;48.708;9.030;2023-01-15T01:35:16;9.80;99.90
16283;DHT22;8249;48.708;9.030;2023-01-15T01:37:47;9.80;99.90
16283;DHT22;8249;48.708;9.030;2023-01-15T01:40:14;9.90;99.90
16283;DHT22;8249;48.708;9.030;2023-01-15T01:42:41;10.00;99.90
16283;DHT22;8249;48.708;9.030;2023-01-15T01:45:18;10.00;99.90
16283;DHT22;8249;48.708;9.030;2023-01-15T01:47:49;10.10;99.90
16283;DHT22;8249;48.708;9.030;2023-01-15T01:50:16;10.20;99.90
16283;DHT22;8249;48.708;9.030;2023-01-15T01:52:47;10.30;99.90
16283;DHT22;8249;48.708;9.030;2023-01-15T01:55:17;10.30;99.90
16283;DHT22;8249;48.708;9.030;2023-01-15T01:57:46;10.30;99.90
16283;DHT22;8249;48.708;9.030;2023-01-15T02:00:18;10.30;99.90
16283;DHT22;8249;48.708;9.030;2023-01-15T02:02:46;10.30;99.90
16283;DHT22;8249;48.708;9.030;2023-01-15T02:05:15;10.30;99.90
16283;DHT22;8249;48.708;9.030;2023-01-15T02:07:46;10.30;99.90
16283;DHT22;8249;48.708;9.030;2023-01-15T02:10:14;10.40;99.90
16283;DHT22;8249;48.708;9.030;2023-01-15T02:12:45;10.30;99.90
16283;DHT22;8249;48.708;9.030;2023-01-15T02:15:21;10.20;99.90
16283;DHT22;8249;48.708;9.030;2023-01-15T02:17:55;10.30;99.90
16283;DHT22;8249;48.708;9.030;2023-01-15T02:20:30;10.30;99.90
16283;DHT22;8249;48.708;9.030;2023-01-15T02:26:11;10.20;99.90
16283;DHT22;8249;48.708;9.030;2023-01-15T02:28:43;10.20;99.90
16283;DHT22;8249;48.708;9.030;2023-01-15T02:31:16;10.20;99.90
16283;DHT22;8249;48.708;9.030;2023-01-15T02:33:50;10.20;99.90
16283;DHT22;8249;48.708;9.030;2023-01-15T02:36:20;10.20;99.90
16283;DHT22;8249;48.708;9.030;2023-01-15T02:38:52;10.20;99.90
16283;DHT22;8249;48.708;9.030;2023-01-15T02:41:25;10.20;99.90
16283;DHT22;8249;48.708;9.030;2023-01-15T02:43:56;10.10;99.90
16283;DHT22;8249;48.708;9.030;2023-01-15T02:46:28;10.10;99.90
16283;DHT22;8249;48.708;9.030;2023-01-15T02:48:57;10.10;99.90
16283;DHT22;8249;48.708;9.030;2023-01-15T02:51:33;10.20;99.90
16283;DHT22;8249;48.708;9.030;2023-01-15T02:54:06;10.20;99.90
16283;DHT22;8249;48.708;9.030;2023-01-15T02:56:36;10.20;99.90
16283;DHT22;8249;48.708;9.030;2023-01-15T02:59:21;10.30;99.90
16283;DHT22;8249;48.708;9.030;2023-01-15T03:01:53;10.30;99.90
16283;DHT22;8249;48.708;9.030;2023-01-15T03:04:29;10.30;99.90
16283;DHT22;8249;48.708;9.030;2023-01-15T03:07:02;10.50;99.90
16283;DHT22;8249;48.708;9.030;2023-01-15T03:09:34;10.60;99.90
16283;DHT22;8249;48.708;9.030;2023-01-15T03:12:05;10.80;99.90
16283;DHT22;8249;48.708;9.030;2023-01-15T03:14:42;10.90;99.90
16283;DHT22;8249;48.708;9.030;2023-01-15T03:17:17;11.00;99.90
16283;DHT22;8249;48.708;9.030;2023-01-15T03:19:48;11.10;99.90
16283;DHT22;8249;48.708;9.030;2023-01-15T03:22:24;11.10;99.90
16283;DHT22;8249;48.708;9.030;2023-01-15T03:24:56;11.00;99.90
16283;DHT22;8249;48.708;9.030;2023-01-15T03:27:23;11.00;99.90
16283;DHT22;8249;48.708;9.030;2023-01-15T03:29:59;11.00;99.90
16283;DHT22;8249;48.708;9.030;2023-01-15T03:32:28;11.00;99.90
16283;DHT22;8249;48.708;9.030;2023-01-15T03:34:56;11.10;99.90
16283;DHT22;8249;48.708;9.030;2023-01-15T03:37:24;11.10;99.90
16283;DHT22;8249;48.708;9.030;2023-01-15T03:40:06;11.10;99.90
16283;DHT22;8249;48.708;9.030;2023-01-15T03:42:53;11.10;99.90
16283;DHT22;8249;48.708;9.030;2023-01-15T03:47:24;11.10;99.90
16283;DHT22;8249;48.708;9.030;2023-01-15T03:49:41;11.10;99.90
16283;DHT22;8249;48.708;9.030;2023-01-15T03:52:30;11.30;99.90
16283;DHT22;8249;48.708;9.030;2023-01-15T03:55:05;11.30;99.90
16283;DHT22;8249;48.708;9.030;2023-01-15T03:57:39;11.10;99.90
16283;DHT22;8249;48.708;9.030;2023-01-15T04:00:25;11.10;99.90
16283;DHT22;8249;48.708;9.030;2023-01-15T04:03:01;11.10;99.90
16283;DHT22;8249;48.708;9.030;2023-01-15T04:05:33;11.10;99.90
16283;DHT22;8249;48.708;9.030;2023-01-15T04:08:06;11.20;99.90
16283;DHT22;8249;48.708;9.030;2023-01-15T04:10:37;11.20;99.90
16283;DHT22;8249;48.708;9.030;2023-01-15T04:13:08;11.20;99.90
16283;DHT22;8249;48.708;9.030;2023-01-15T04:15:40;11.20;99.90
16283;DHT22;8249;48.708;9.030;2023-01-15T04:18:13;11.20;99.90
16283;DHT22;8249;48.708;9.030;2023-01-15T04:20:45;11.30;99.90
16283;DHT22;8249;48.708;9.030;2023-01-15T04:23:13;11.30;99.90
16283;DHT22;8249;48.708;9.030;2023-01-15T04:25:41;11.30;99.90
16283;DHT22;8249;48.708;9.030;2023-01-15T04:28:12;11.30;99.90
16283;DHT22;8249;48.708;9.030;2023-01-15T04:30:43;11.40;99.90
16283;DHT22;8249;48.708;9.030;2023-01-15T04:33:22;11.40;99.90
16283;DHT22;8249;48.708;9.030;2023-01-15T04:35:49;11.30;99.90
16283;DHT22;8249;48.708;9.030;2023-01-15T04:38:21;11.30;99.90
16283;DHT22;8249;48.708;9.030;2023-01-15T04:40:59;11.30;99.90
16283;DHT22;8249;48.708;9.030;2023-01-15T04:43:49;11.20;99.90
16283;DHT22;8249;48.708;9.030;2023-01-15T04:46:37;11.30;99.90
16283;DHT22;8249;48.708;9.030;2023-01-15T04:49:10;11.40;99.90
16283;DHT22;8249;48.708;9.030;2023-01-15T04:51:45;11.20;99.90
16283;DHT22;8249;48.708;9.030;2023-01-15T04:54:13;11.30;99.90
16283;DHT22;8249;48.708;9.030;2023-01-15T04:56:42;11.10;99.90
16283;DHT22;8249;48.708;9.030;2023-01-15T04:59:10;11.10;99.90
16283;DHT22;8249;48.708;9.030;2023-01-15T05:01:38;11.10;99.90
16283;DHT22;8249;48.708;9.030;2023-01-15T05:04:05;11.10;99.90
16283;DHT22;8249;48.708;9.030;2023-01-15T05:06:34;11.10;99.90
16283;DHT22;8249;48.708;9.030;2023-01-15T05:09:02;11.10;99.90
16283;DHT22;8249;48.708;9.030;2023-01-15T05:11:29;11.10;99.90
16283;DHT22;8249;48.708;9.030;2023-01-15T05:13:57;11.10;99.90
16283;DHT22;8249;48.708;9.030;2023-01-15T05:16:25;11.10;99.90
16283;DHT22;8249;48.708;9.030;2023-01-15T05:18:54;11.00;99.90
16283;DHT22;8249;48.708;9.030;2023-01-15T05:21:24;11.10;99.90
16283;DHT22;8249;48.708;9.030;2023-01-15T05:23:54;11.10;99.90
16283;DHT22;8249;48.708;9.030;2023-01-15T05:26:22;11.10;99.90
16283;DHT22;8249;48.708;9.030;2023-01-15T05:28:51;11.00;99.90
16283;DHT22;8249;48.708;9.030;2023-01-15T05:31:19;11.00;99.90
16283;DHT22;8249;48.708;9.030;2023-01-15T05:33:47;10.80;99.90
16283;DHT22;8249;48.708;9.030;2023-01-15T05:36:17;10.30;99.90
16283;DHT22;8249;48.708;9.030;2023-01-15T05:38:45;9.60;99.90
16283;DHT22;8249;48.708;9.030;2023-01-15T05:41:16;9.10;99.90
16283;DHT22;8249;48.708;9.030;2023-01-15T05:44:04;8.90;99.90
16283;DHT22;8249;48.708;9.030;2023-01-15T05:46:32;8.50;99.90
16283;DHT22;8249;48.708;9.030;2023-01-15T05:49:00;8.20;99.90
16283;DHT22;8249;48.708;9.030;2023-01-15T05:51:27;8.10;99.90
16283;DHT22;8249;48.708;9.030;2023-01-15T05:53:55;7.90;99.90
16283;DHT22;8249;48.708;9.030;2023-01-15T05:56:24;7.70;99.90
16283;DHT22;8249;48.708;9.030;2023-01-15T05:58:51;7.60;99.90
16283;DHT22;8249;48.708;9.030;2023-01-15T06:01:19;7.60;99.90
16283;DHT22;8249;48.708;9.030;2023-01-15T06:03:46;7.50;99.90
16283;DHT22;8249;48.708;9.030;2023-01-15T06:06:15;7.40;99.90
16283;DHT22;8249;48.708;9.030;2023-01-15T06:08:42;7.40;99.90
16283;DHT22;8249;48.708;9.030;2023-01-15T06:11:09;7.40;99.90
16283;DHT22;8249;48.708;9.030;2023-01-15T06:13:38;7.40;99.90
16283;DHT22;8249;48.708;9.030;2023-01-15T06:16:06;7.40;99.90
16283;DHT22;8249;48.708;9.030;2023-01-15T06:18:33;7.40;99.90
16283;DHT22;8249;48.708;9.030;2023-01-15T06:21:02;7.20;99.90
16283;DHT22;8249;48.708;9.030;2023-01-15T06:23:29;7.30;99.90
16283;DHT22;8249;48.708;9.030;2023-01-15T06:25:59;7.50;99.90
16283;DHT22;8249;48.708;9.030;2023-01-15T06:28:26;7.20;99.90
16283;DHT22;8249;48.708;9.030;2023-01-15T06:30:55;7.20;99.90
16283;DHT22;8249;48.708;9.030;2023-01-15T06:33:23;7.20;99.90
16283;DHT22;8249;48.708;9.030;2023-01-15T06:35:50;7.10;99.90
16283;DHT22;8249;48.708;9.030;2023-01-15T06:38:17;7.00;99.90
16283;DHT22;8249;48.708;9.030;2023-01-15T06:40:44;7.10;99.90
16283;DHT22;8249;48.708;9.030;2023-01-15T06:43:12;7.20;99.90
16283;DHT22;8249;48.708;9.030;2023-01-15T06:46:03;7.10;99.90
16283;DHT22;8249;48.708;9.030;2023-01-15T06:48:47;7.00;99.90
16283;DHT22;8249;48.708;9.030;2023-01-15T06:51:14;7.00;99.90
16283;DHT22;8249;48.708;9.030;2023-01-15T06:53:44;7.00;99.90
16283;DHT22;8249;48.708;9.030;2023-01-15T06:56:12;6.90;99.90
16283;DHT22;8249;48.708;9.030;2023-01-15T06:58:40;6.90;99.90
16283;DHT22;8249;48.708;9.030;2023-01-15T07:01:11;6.90;99.90
16283;DHT22;8249;48.708;9.030;2023-01-15T07:03:41;6.80;99.90
16283;DHT22;8249;48.708;9.030;2023-01-15T07:06:12;6.80;99.90
16283;DHT22;8249;48.708;9.030;2023-01-15T07:08:39;6.80;99.90
16283;DHT22;8249;48.708;9.030;2023-01-15T07:11:08;6.70;99.90
16283;DHT22;8249;48.708;9.030;2023-01-15T07:13:37;6.70;99.90
16283;DHT22;8249;48.708;9.030;2023-01-15T07:16:04;6.80;99.90
16283;DHT22;8249;48.708;9.030;2023-01-15T07:18:53;6.60;99.90
16283;DHT22;8249;48.708;9.030;2023-01-15T07:21:23;6.60;99.90
16283;DHT22;8249;48.708;9.030;2023-01-15T07:23:53;6.50;99.90
16283;DHT22;8249;48.708;9.030;2023-01-15T07:26:22;6.50;99.90
16283;DHT22;8249;48.708;9.030;2023-01-15T07:28:49;6.50;99.90
16283;DHT22;8249;48.708;9.030;2023-01-15T07:31:16;6.40;99.90
16283;DHT22;8249;48.708;9.030;2023-01-15T07:33:43;6.40;99.90
16283;DHT22;8249;48.708;9.030;2023-01-15T07:36:11;6.30;99.90
16283;DHT22;8249;48.708;9.030;2023-01-15T07:38:39;6.20;99.90
16283;DHT22;8249;48.708;9.030;2023-01-15T07:41:06;6.20;99.90
16283;DHT22;8249;48.708;9.030;2023-01-15T07:43:50;6.20;99.90
16283;DHT22;8249;48.708;9.030;2023-01-15T07:46:35;6.20;99.90
16283;DHT22;8249;48.708;9.030;2023-01-15T07:49:19;6.10;99.90
16283;DHT22;8249;48.708;9.030;2023-01-15T07:52:05;6.10;99.90
16283;DHT22;8249;48.708;9.030;2023-01-15T07:54:32;6.10;99.90
16283;DHT22;8249;48.708;9.030;2023-01-15T07:56:59;6.10;99.90
16283;DHT22;8249;48.708;9.030;2023-01-15T07:59:26;6.10;99.90
16283;DHT22;8249;48.708;9.030;2023-01-15T08:01:53;6.00;99.90
16283;DHT22;8249;48.708;9.030;2023-01-15T08:04:20;6.10;99.90
16283;DHT22;8249;48.708;9.030;2023-01-15T08:06:50;6.00;99.90
16283;DHT22;8249;48.708;9.030;2023-01-15T08:09:18;6.00;99.90
16283;DHT22;8249;48.708;9.030;2023-01-15T08:11:45;6.00;99.90
16283;DHT22;8249;48.708;9.030;2023-01-15T08:14:29;5.90;99.90
16283;DHT22;8249;48.708;9.030;2023-01-15T08:17:14;5.90;99.90
16283;DHT22;8249;48.708;9.030;2023-01-15T08:19:41;5.90;99.90
16283;DHT22;8249;48.708;9.030;2023-01-15T08:22:09;5.80;99.90
16283;DHT22;8249;48.708;9.030;2023-01-15T08:24:38;5.90;99.90
16283;DHT22;8249;48.708;9.030;2023-01-15T08:27:05;5.80;99.90
16283;DHT22;8249;48.708;9.030;2023-01-15T08:29:32;5.90;99.90
16283;DHT22;8249;48.708;9.030;2023-01-15T08:31:59;5.90;99.90
16283;DHT22;8249;48.708;9.030;2023-01-15T08:34:26;5.90;99.90
16283;DHT22;8249;48.708;9.030;2023-01-15T08:36:53;5.80;99.90
16283;DHT22;8249;48.708;9.030;2023-01-15T08:39:25;5.80;99.90
16283;DHT22;8249;48.708;9.030;2023-01-15T08:41:54;5.90;99.90
16283;DHT22;8249;48.708;9.030;2023-01-15T08:44:21;5.80;99.90
16283;DHT22;8249;48.708;9.030;2023-01-15T08:46:50;5.80;99.90
16283;DHT22;8249;48.708;9.030;2023-01-15T08:49:19;5.80;99.90
16283;DHT22;8249;48.708;9.030;2023-01-15T08:51:46;5.80;99.90
16283;DHT22;8249;48.708;9.030;2023-01-15T08:54:17;5.80;99.90
16283;DHT22;8249;48.708;9.030;2023-01-15T08:56:44;5.80;99.90
16283;DHT22;8249;48.708;9.030;2023-01-15T08:59:13;5.80;99.90
16283;DHT22;8249;48.708;9.030;2023-01-15T09:01:40;5.90;99.90
16283;DHT22;8249;48.708;9.030;2023-01-15T09:04:12;5.90;99.90
16283;DHT22;8249;48.708;9.030;2023-01-15T09:06:39;5.90;99.90
16283;DHT22;8249;48.708;9.030;2023-01-15T09:09:06;5.90;99.90
16283;DHT22;8249;48.708;9.030;2023-01-15T09:11:34;5.90;99.90
16283;DHT22;8249;48.708;9.030;2023-01-15T09:14:05;6.00;99.90
16283;DHT22;8249;48.708;9.030;2023-01-15T09:16:34;5.90;99.90
16283;DHT22;8249;48.708;9.030;2023-01-15T09:19:02;6.00;99.90
16283;DHT22;8249;48.708;9.030;2023-01-15T09:21:29;6.00;99.90
16283;DHT22;8249;48.708;9.030;2023-01-15T09:23:56;5.90;99.90
16283;DHT22;8249;48.708;9.030;2023-01-15T09:26:29;5.90;99.90
16283;DHT22;8249;48.708;9.030;2023-01-15T09:28:56;6.00;99.90
16283;DHT22;8249;48.708;9.030;2023-01-15T09:31:24;6.10;99.90
16283;DHT22;8249;48.708;9.030;2023-01-15T09:33:52;6.00;99.90
16283;DHT22;8249;48.708;9.030;2023-01-15T09:36:23;6.10;99.90
16283;DHT22;8249;48.708;9.030;2023-01-15T09:38:50;6.10;99.90
16283;DHT22;8249;48.708;9.030;2023-01-15T09:41:18;6.10;99.90
16283;DHT22;8249;48.708;9.030;2023-01-15T09:44:11;6.10;99.90
16283;DHT22;8249;48.708;9.030;2023-01-15T09:46:49;6.10;99.90
16283;DHT22;8249;48.708;9.030;2023-01-15T09:49:32;6.00;99.90
16283;DHT22;8249;48.708;9.030;2023-01-15T09:52:06;6.00;99.90
16283;DHT22;8249;48.708;9.030;2023-01-15T09:54:47;5.90;99.90
16283;DHT22;8249;48.708;9.030;2023-01-15T09:57:18;5.90;99.90
16283;DHT22;8249;48.708;9.030;2023-01-15T09:59:48;5.80;99.90
16283;DHT22;8249;48.708;9.030;2023-01-15T10:02:21;6.00;99.90
16283;DHT22;8249;48.708;9.030;2023-01-15T10:04:53;6.10;99.90
16283;DHT22;8249;48.708;9.030;2023-01-15T10:07:28;6.20;99.90
16283;DHT22;8249;48.708;9.030;2023-01-15T10:10:00;6.20;99.90
16283;DHT22;8249;48.708;9.030;2023-01-15T10:12:30;6.20;99.90
16283;DHT22;8249;48.708;9.030;2023-01-15T10:15:26;6.30;99.90
16283;DHT22;8249;48.708;9.030;2023-01-15T10:17:57;6.30;99.90
16283;DHT22;8249;48.708;9.030;2023-01-15T10:20:46;6.30;99.90
16283;DHT22;8249;48.708;9.030;2023-01-15T10:23:33;6.20;99.90
16283;DHT22;8249;48.708;9.030;2023-01-15T10:26:07;6.30;99.90
16283;DHT22;8249;48.708;9.030;2023-01-15T10:28:58;6.40;99.90
16283;DHT22;8249;48.708;9.030;2023-01-15T10:31:39;6.30;99.90
16283;DHT22;8249;48.708;9.030;2023-01-15T10:37:08;6.20;99.90
16283;DHT22;8249;48.708;9.030;2023-01-15T10:39:42;6.20;99.90
16283;DHT22;8249;48.708;9.030;2023-01-15T10:42:23;6.20;99.90
16283;DHT22;8249;48.708;9.030;2023-01-15T10:45:00;6.10;99.90
16283;DHT22;8249;48.708;9.030;2023-01-15T10:47:32;6.20;99.90
16283;DHT22;8249;48.708;9.030;2023-01-15T10:50:02;6.10;99.90
16283;DHT22;8249;48.708;9.030;2023-01-15T10:52:32;6.00;99.90
16283;DHT22;8249;48.708;9.030;2023-01-15T10:55:05;6.00;99.90
16283;DHT22;8249;48.708;9.030;2023-01-15T10:57:42;6.00;99.90
16283;DHT22;8249;48.708;9.030;2023-01-15T11:00:14;6.00;99.90
16283;DHT22;8249;48.708;9.030;2023-01-15T11:02:44;5.90;99.90
16283;DHT22;8249;48.708;9.030;2023-01-15T11:05:15;5.70;99.90
16283;DHT22;8249;48.708;9.030;2023-01-15T11:07:45;5.60;99.90
16283;DHT22;8249;48.708;9.030;2023-01-15T11:10:14;5.40;99.90
16283;DHT22;8249;48.708;9.030;2023-01-15T11:12:47;5.30;99.90
16283;DHT22;8249;48.708;9.030;2023-01-15T11:15:33;5.10;99.90
16283;DHT22;8249;48.708;9.030;2023-01-15T11:18:24;5.00;99.90
16283;DHT22;8249;48.708;9.030;2023-01-15T11:21:11;4.80;99.90
16283;DHT22;8249;48.708;9.030;2023-01-15T11:23:40;4.80;99.90
16283;DHT22;8249;48.708;9.030;2023-01-15T11:26:09;4.80;99.90
16283;DHT22;8249;48.708;9.030;2023-01-15T11:28:38;4.70;99.90
16283;DHT22;8249;48.708;9.030;2023-01-15T11:31:08;4.70;99.90
16283;DHT22;8249;48.708;9.030;2023-01-15T11:33:36;4.50;99.90
16283;DHT22;8249;48.708;9.030;2023-01-15T11:36:05;4.40;99.90
16283;DHT22;8249;48.708;9.030;2023-01-15T11:38:44;4.50;99.90
16283;DHT22;8249;48.708;9.030;2023-01-15T11:41:21;4.40;99.90
16283;DHT22;8249;48.708;9.030;2023-01-15T11:43:56;4.30;99.90
16283;DHT22;8249;48.708;9.030;2023-01-15T11:46:40;4.40;99.90
16283;DHT22;8249;48.708;9.030;2023-01-15T11:49:25;4.60;99.90
16283;DHT22;8249;48.708;9.030;2023-01-15T11:52:13;4.50;99.90
16283;DHT22;8249;48.708;9.030;2023-01-15T11:54:45;4.50;99.90
16283;DHT22;8249;48.708;9.030;2023-01-15T11:57:24;4.60;99.90
16283;DHT22;8249;48.708;9.030;2023-01-15T11:59:52;4.50;99.90
16283;DHT22;8249;48.708;9.030;2023-01-15T12:02:28;4.60;99.90
16283;DHT22;8249;48.708;9.030;2023-01-15T12:04:58;4.60;99.90
16283;DHT22;8249;48.708;9.030;2023-01-15T12:07:27;4.60;99.90
16283;DHT22;8249;48.708;9.030;2023-01-15T12:10:19;4.50;99.90
16283;DHT22;8249;48.708;9.030;2023-01-15T12:13:13;4.60;99.90
16283;DHT22;8249;48.708;9.030;2023-01-15T12:15:48;4.50;99.90
16283;DHT22;8249;48.708;9.030;2023-01-15T12:18:39;4.50;99.90
16283;DHT22;8249;48.708;9.030;2023-01-15T12:21:23;4.50;99.90
16283;DHT22;8249;48.708;9.030;2023-01-15T12:24:08;4.50;99.90
16283;DHT22;8249;48.708;9.030;2023-01-15T12:26:43;4.50;99.90
16283;DHT22;8249;48.708;9.030;2023-01-15T12:29:21;4.40;99.90
16283;DHT22;8249;48.708;9.030;2023-01-15T12:31:53;4.30;99.90
16283;DHT22;8249;48.708;9.030;2023-01-15T12:34:26;4.20;99.90
16283;DHT22;8249;48.708;9.030;2023-01-15T12:36:58;4.20;99.90
16283;DHT22;8249;48.708;9.030;2023-01-15T12:39:30;4.10;99.90
16283;DHT22;8249;48.708;9.030;2023-01-15T12:42:02;4.10;99.90
16283;DHT22;8249;48.708;9.030;2023-01-15T12:44:51;4.10;99.90
16283;DHT22;8249;48.708;9.030;2023-01-15T12:47:33;4.00;99.90
16283;DHT22;8249;48.708;9.030;2023-01-15T12:50:05;4.00;99.90
16283;DHT22;8249;48.708;9.030;2023-01-15T12:52:39;4.10;99.90
16283;DHT22;8249;48.708;9.030;2023-01-15T12:55:13;4.10;99.90
16283;DHT22;8249;48.708;9.030;2023-01-15T12:57:44;4.10;99.90
16283;DHT22;8249;48.708;9.030;2023-01-15T13:00:16;4.10;99.90
16283;DHT22;8249;48.708;9.030;2023-01-15T13:02:57;4.20;99.90
16283;DHT22;8249;48.708;9.030;2023-01-15T13:05:29;4.20;99.90
16283;DHT22;8249;48.708;9.030;2023-01-15T13:08:02;4.30;99.90
16283;DHT22;8249;48.708;9.030;2023-01-15T13:10:31;4.40;99.90
16283;DHT22;8249;48.708;9.030;2023-01-15T13:13:13;4.40;99.90
16283;DHT22;8249;48.708;9.030;2023-01-15T13:15:49;4.40;99.90
16283;DHT22;8249;48.708;9.030;2023-01-15T13:18:23;4.50;99.90
16283;DHT22;8249;48.708;9.030;2023-01-15T13:20:51;4.50;99.90
16283;DHT22;8249;48.708;9.030;2023-01-15T13:23:33;4.60;99.90
16283;DHT22;8249;48.708;9.030;2023-01-15T13:26:14;4.50;99.90
16283;DHT22;8249;48.708;9.030;2023-01-15T13:28:53;4.60;99.90
16283;DHT22;8249;48.708;9.030;2023-01-15T13:31:41;4.60;99.90
16283;DHT22;8249;48.708;9.030;2023-01-15T13:34:16;4.80;99.90
16283;DHT22;8249;48.708;9.030;2023-01-15T13:36:46;4.70;99.90
16283;DHT22;8249;48.708;9.030;2023-01-15T13:39:17;4.70;99.90
16283;DHT22;8249;48.708;9.030;2023-01-15T13:41:47;4.80;99.90
16283;DHT22;8249;48.708;9.030;2023-01-15T13:44:37;4.90;99.90
16283;DHT22;8249;48.708;9.030;2023-01-15T13:47:07;5.10;99.90
16283;DHT22;8249;48.708;9.030;2023-01-15T13:49:36;5.30;99.90
16283;DHT22;8249;48.708;9.030;2023-01-15T13:52:06;6.60;99.90
16283;DHT22;8249;48.708;9.030;2023-01-15T13:54:39;7.80;99.90
16283;DHT22;8249;48.708;9.030;2023-01-15T13:57:07;8.60;99.90
16283;DHT22;8249;48.708;9.030;2023-01-15T13:59:40;9.30;99.90
16283;DHT22;8249;48.708;9.030;2023-01-15T14:02:23;9.70;99.90
16283;DHT22;8249;48.708;9.030;2023-01-15T14:04:51;9.90;99.90
16283;DHT22;8249;48.708;9.030;2023-01-15T14:07:19;9.80;99.90
16283;DHT22;8249;48.708;9.030;2023-01-15T14:09:48;9.90;99.90
16283;DHT22;8249;48.708;9.030;2023-01-15T14:12:24;9.50;99.90
16283;DHT22;8249;48.708;9.030;2023-01-15T14:15:07;9.20;99.90
16283;DHT22;8249;48.708;9.030;2023-01-15T14:17:59;9.10;99.90
16283;DHT22;8249;48.708;9.030;2023-01-15T14:20:50;9.50;99.90
16283;DHT22;8249;48.708;9.030;2023-01-15T14:23:34;9.60;99.90
16283;DHT22;8249;48.708;9.030;2023-01-15T14:26:10;9.60;99.90
16283;DHT22;8249;48.708;9.030;2023-01-15T14:28:59;9.50;99.90
16283;DHT22;8249;48.708;9.030;2023-01-15T14:31:41;9.50;99.90
16283;DHT22;8249;48.708;9.030;2023-01-15T14:34:17;9.50;99.90
16283;DHT22;8249;48.708;9.030;2023-01-15T14:36:55;9.50;99.90
16283;DHT22;8249;48.708;9.030;2023-01-15T14:39:29;9.20;99.90
16283;DHT22;8249;48.708;9.030;2023-01-15T14:42:03;9.20;99.90
16283;DHT22;8249;48.708;9.030;2023-01-15T14:44:55;8.80;99.90
16283;DHT22;8249;48.708;9.030;2023-01-15T14:47:29;9.30;99.90
16283;DHT22;8249;48.708;9.030;2023-01-15T14:50:26;9.20;99.90
16283;DHT22;8249;48.708;9.030;2023-01-15T14:52:59;9.30;99.90
16283;DHT22;8249;48.708;9.030;2023-01-15T14:55:29;9.10;99.90
16283;DHT22;8249;48.708;9.030;2023-01-15T14:57:59;9.10;99.90
16283;DHT22;8249;48.708;9.030;2023-01-15T15:00:33;9.00;99.90
16283;DHT22;8249;48.708;9.030;2023-01-15T15:03:10;8.90;99.90
16283;DHT22;8249;48.708;9.030;2023-01-15T15:05:41;8.60;99.90
16283;DHT22;8249;48.708;9.030;2023-01-15T15:08:11;8.50;99.90
16283;DHT22;8249;48.708;9.030;2023-01-15T15:10:41;8.50;99.90
16283;DHT22;8249;48.708;9.030;2023-01-15T15:13:14;8.30;99.90
16283;DHT22;8249;48.708;9.030;2023-01-15T15:15:49;7.40;99.90
16283;DHT22;8249;48.708;9.030;2023-01-15T15:18:26;6.70;99.90
16283;DHT22;8249;48.708;9.030;2023-01-15T15:21:04;6.10;99.90
16283;DHT22;8249;48.708;9.030;2023-01-15T15:23:38;5.70;99.90
16283;DHT22;8249;48.708;9.030;2023-01-15T15:26:16;5.40;99.90
16283;DHT22;8249;48.708;9.030;2023-01-15T15:28:54;5.20;99.90
16283;DHT22;8249;48.708;9.030;2023-01-15T15:31:21;5.10;99.90
16283;DHT22;8249;48.708;9.030;2023-01-15T15:33:53;5.00;99.90
16283;DHT22;8249;48.708;9.030;2023-01-15T15:36:20;4.90;99.90
16283;DHT22;8249;48.708;9.030;2023-01-15T15:38:52;4.90;99.90
16283;DHT22;8249;48.708;9.030;2023-01-15T15:41:21;4.80;99.90
16283;DHT22;8249;48.708;9.030;2023-01-15T15:44:14;4.80;99.90
16283;DHT22;8249;48.708;9.030;2023-01-15T15:47:14;4.70;99.90
16283;DHT22;8249;48.708;9.030;2023-01-15T15:50:00;4.60;99.90
16283;DHT22;8249;48.708;9.030;2023-01-15T15:52:27;4.60;99.90
16283;DHT22;8249;48.708;9.030;2023-01-15T15:54:58;4.60;99.90
16283;DHT22;8249;48.708;9.030;2023-01-15T15:57:26;4.50;99.90
16283;DHT22;8249;48.708;9.030;2023-01-15T15:59:55;4.40;99.90
16283;DHT22;8249;48.708;9.030;2023-01-15T16:02:24;4.40;99.90
16283;DHT22;8249;48.708;9.030;2023-01-15T16:04:53;4.40;99.90
16283;DHT22;8249;48.708;9.030;2023-01-15T16:07:24;4.30;99.90
16283;DHT22;8249;48.708;9.030;2023-01-15T16:09:55;4.30;99.90
16283;DHT22;8249;48.708;9.030;2023-01-15T16:12:25;4.20;99.90
16283;DHT22;8249;48.708;9.030;2023-01-15T16:14:53;4.20;99.90
16283;DHT22;8249;48.708;9.030;2023-01-15T16:17:23;4.10;99.90
16283;DHT22;8249;48.708;9.030;2023-01-15T16:19:52;4.10;99.90
16283;DHT22;8249;48.708;9.030;2023-01-15T16:22:19;4.10;99.90
16283;DHT22;8249;48.708;9.030;2023-01-15T16:24:55;4.00;99.90
16283;DHT22;8249;48.708;9.030;2023-01-15T16:27:27;4.00;99.90
16283;DHT22;8249;48.708;9.030;2023-01-15T16:29:56;4.00;99.90
16283;DHT22;8249;48.708;9.030;2023-01-15T16:32:26;4.00;99.90
16283;DHT22;8249;48.708;9.030;2023-01-15T16:35:01;4.00;99.90
16283;DHT22;8249;48.708;9.030;2023-01-15T16:37:30;4.00;99.90
16283;DHT22;8249;48.708;9.030;2023-01-15T16:40:00;4.00;99.90